createdAt,value
2018-12-24T00:00:56.520Z,7.52
2018-12-24T00:06:33.002Z,7.43
2018-12-24T00:09:43.104Z,7.37
2018-12-24T00:12:15.627Z,7.30
2018-12-24T00:14:48.034Z,7.12
2018-12-24T00:17:39.328Z,7.07
2018-12-24T00:20:11.648Z,7.06
2018-12-24T00:22:43.964Z,7.11
2018-12-24T00:28:32.215Z,7.21
2018-12-24T00:33:49.729Z,7.22
2018-12-24T00:36:22.786Z,7.23
2018-12-24T00:38:55.182Z,7.23
2018-12-24T00:41:27.435Z,7.22
2018-12-24T00:44:00.072Z,7.19
2018-12-24T00:46:51.739Z,7.21
2018-12-24T00:49:43.511Z,7.04
2018-12-24T00:58:21.929Z,6.74
2018-12-24T01:03:59.534Z,6.48
2018-12-24T01:06:31.916Z,6.43
2018-12-24T01:09:06.052Z,6.49
2018-12-24T01:11:47.860Z,6.51
2018-12-24T01:14:55.924Z,6.51
2018-12-24T01:18:01.137Z,6.47
2018-12-24T01:20:52.836Z,6.56
2018-12-24T01:23:44.518Z,6.52
2018-12-24T01:26:36.241Z,6.51
2018-12-24T01:29:27.962Z,6.43
2018-12-24T01:32:19.637Z,6.48
2018-12-24T01:38:08.072Z,6.48
2018-12-24T01:41:00.433Z,6.40
2018-12-24T01:49:19.771Z,6.31
2018-12-24T01:51:52.105Z,6.28
2018-12-24T01:54:24.751Z,6.28
2018-12-24T01:56:57.062Z,6.20
2018-12-24T01:59:29.372Z,6.08
2018-12-24T02:02:01.735Z,6.00
2018-12-24T02:04:34.114Z,5.99
2018-12-24T02:07:06.495Z,6.08
2018-12-24T02:09:39.181Z,6.11
2018-12-24T02:12:30.894Z,6.18
2018-12-24T02:15:03.218Z,6.19
2018-12-24T02:17:35.545Z,6.22
2018-12-24T02:20:08.069Z,6.21
2018-12-24T02:22:40.703Z,6.25
2018-12-24T02:25:15.414Z,6.30
2018-12-24T02:34:31.283Z,6.20
2018-12-24T02:40:06.332Z,6.10
2018-12-24T02:42:38.735Z,5.97
2018-12-24T02:45:11.007Z,5.95
2018-12-24T02:48:02.701Z,5.86
2018-12-24T02:50:34.961Z,5.81
2018-12-24T02:53:07.310Z,5.79
2018-12-24T02:58:35.176Z,5.74
2018-12-24T03:01:26.870Z,5.80
2018-12-24T03:04:20.575Z,5.87
2018-12-24T03:06:55.934Z,5.91
2018-12-24T03:09:28.266Z,5.86
2018-12-24T03:12:19.959Z,5.88
2018-12-24T03:15:11.639Z,5.91
2018-12-24T03:17:44.081Z,5.90
2018-12-24T03:20:16.393Z,5.88
2018-12-24T03:22:48.701Z,5.86
2018-12-24T03:25:21.013Z,5.85
2018-12-24T03:27:53.332Z,5.86
2018-12-24T03:33:29.634Z,5.70
2018-12-24T03:36:01.989Z,5.65
2018-12-24T03:38:36.771Z,5.56
2018-12-24T03:41:09.093Z,5.54
2018-12-24T03:43:42.057Z,5.55
2018-12-24T03:46:14.325Z,5.55
2018-12-24T03:48:57.960Z,5.64
2018-12-24T03:51:30.236Z,5.53
2018-12-24T03:57:07.080Z,5.46
2018-12-24T03:59:39.403Z,5.45
2018-12-24T04:05:22.178Z,5.62
2018-12-24T04:07:54.416Z,5.41
2018-12-24T04:10:26.758Z,5.39
2018-12-24T04:12:59.016Z,5.43
2018-12-24T04:15:50.340Z,5.40
2018-12-24T04:18:41.395Z,5.41
2018-12-24T04:21:33.177Z,5.44
2018-12-24T04:24:05.490Z,5.37
2018-12-24T04:26:37.789Z,5.30
2018-12-24T04:29:10.118Z,5.19
2018-12-24T04:31:42.380Z,5.02
2018-12-24T04:34:14.671Z,4.93
2018-12-24T04:40:10.184Z,5.08
2018-12-24T04:42:42.759Z,5.16
2018-12-24T04:45:34.587Z,5.07
2018-12-24T04:48:06.889Z,5.11
2018-12-24T04:50:39.159Z,5.07
2018-12-24T04:53:15.308Z,5.09
2018-12-24T04:55:47.615Z,4.99
2018-12-24T04:58:19.998Z,5.10
2018-12-24T05:00:52.335Z,5.12
2018-12-24T05:03:24.722Z,5.21
2018-12-24T05:05:57.017Z,5.24
2018-12-24T05:08:29.706Z,5.31
2018-12-24T05:11:21.039Z,5.24
2018-12-24T05:14:13.175Z,5.18
2018-12-24T05:16:45.449Z,5.13
2018-12-24T05:19:36.540Z,5.06
2018-12-24T05:25:28.249Z,5.03
2018-12-24T05:28:12.733Z,5.02
2018-12-24T05:30:45.064Z,4.83
2018-12-24T05:33:36.802Z,4.66
2018-12-24T05:36:09.113Z,4.61
2018-12-24T05:42:18.376Z,4.72
2018-12-24T05:44:51.111Z,4.76
2018-12-24T05:47:23.726Z,4.69
2018-12-24T05:52:59.256Z,4.74
2018-12-24T05:55:50.945Z,4.79
2018-12-24T05:58:23.686Z,4.74
2018-12-24T06:00:56.056Z,4.67
2018-12-24T06:03:28.397Z,4.54
2018-12-24T06:06:00.778Z,4.55
2018-12-24T06:08:33.534Z,4.57
2018-12-24T06:11:05.912Z,4.53
2018-12-24T06:13:38.203Z,4.45
2018-12-24T06:16:11.546Z,4.54
2018-12-24T06:18:43.903Z,4.49
2018-12-24T06:21:16.175Z,4.44
2018-12-24T06:23:48.539Z,4.45
2018-12-24T06:26:33.842Z,4.52
2018-12-24T06:29:06.233Z,4.43
2018-12-24T06:31:38.540Z,4.51
2018-12-24T06:34:11.310Z,4.56
2018-12-24T06:36:43.591Z,4.54
2018-12-24T06:39:15.904Z,4.49
2018-12-24T06:41:48.178Z,4.56
2018-12-24T06:44:20.510Z,4.52
2018-12-24T06:46:52.775Z,4.37
2018-12-24T06:49:25.107Z,4.37
2018-12-24T06:51:57.799Z,4.30
2018-12-24T06:57:47.176Z,4.32
2018-12-24T07:00:19.478Z,4.27
2018-12-24T07:02:54.350Z,4.35
2018-12-24T07:05:46.120Z,4.46
2018-12-24T07:08:18.840Z,4.34
2018-12-24T07:10:51.205Z,4.30
2018-12-24T07:13:23.853Z,4.33
2018-12-24T07:15:56.159Z,4.36
2018-12-24T07:18:28.431Z,4.37
2018-12-24T07:21:03.600Z,4.35
2018-12-24T07:23:55.306Z,4.35
2018-12-24T07:26:47.032Z,4.45
2018-12-24T07:29:38.676Z,4.43
2018-12-24T07:32:36.294Z,4.50
2018-12-24T07:35:27.980Z,4.56
2018-12-24T07:38:00.463Z,4.67
2018-12-24T07:40:32.763Z,4.68
2018-12-24T07:46:23.125Z,4.65
2018-12-24T07:48:55.592Z,4.79
2018-12-24T07:51:27.862Z,4.83
2018-12-24T07:54:21.080Z,4.81
2018-12-24T07:57:12.733Z,4.73
2018-12-24T08:03:21.138Z,4.50
2018-12-24T08:06:12.790Z,4.50
2018-12-24T08:14:37.131Z,4.72
2018-12-24T08:17:11.233Z,4.85
2018-12-24T08:20:02.938Z,4.89
2018-12-24T08:22:55.008Z,4.94
2018-12-24T08:25:48.955Z,4.94
2018-12-24T08:28:46.553Z,4.95
2018-12-24T08:31:18.881Z,5.05
2018-12-24T08:33:51.196Z,5.18
2018-12-24T08:36:23.818Z,5.20
2018-12-24T08:38:56.161Z,5.40
2018-12-24T08:41:28.470Z,5.54
2018-12-24T08:44:01.187Z,5.67
2018-12-24T08:46:33.578Z,5.68
2018-12-24T08:49:25.029Z,5.63
2018-12-24T08:51:57.373Z,5.70
2018-12-24T08:54:29.642Z,5.81
2018-12-24T08:57:01.905Z,5.87
2018-12-24T08:59:34.234Z,6.09
2018-12-24T09:02:06.500Z,6.25
2018-12-24T09:04:39.124Z,6.46
2018-12-24T09:07:36.034Z,6.61
2018-12-24T09:10:08.308Z,6.88
2018-12-24T09:12:59.794Z,6.93
2018-12-24T09:15:32.122Z,7.13
2018-12-24T09:18:23.097Z,7.19
2018-12-24T09:23:58.754Z,7.74
2018-12-24T09:29:14.503Z,8.00
2018-12-24T09:34:30.375Z,8.55
2018-12-24T09:37:21.415Z,8.78
2018-12-24T09:40:15.238Z,9.03
2018-12-24T09:43:07.000Z,9.12
2018-12-24T09:45:41.040Z,9.06
2018-12-24T09:48:13.303Z,9.91
2018-12-24T09:50:45.626Z,10.12
2018-12-24T09:53:37.331Z,10.53
2018-12-24T09:56:12.422Z,10.82
2018-12-24T09:59:22.467Z,11.06
2018-12-24T10:01:54.862Z,10.75
2018-12-24T10:05:04.788Z,10.45
2018-12-24T10:07:56.514Z,10.32
2018-12-24T10:13:32.192Z,11.89
2018-12-24T10:16:04.517Z,11.99
2018-12-24T10:18:36.878Z,12.00
2018-12-24T10:25:04.298Z,13.04
2018-12-24T10:27:38.525Z,12.25
2018-12-24T10:30:11.236Z,12.90
2018-12-24T10:32:43.529Z,12.78
2018-12-24T10:35:15.843Z,12.53
2018-12-24T10:37:48.110Z,12.59
2018-12-24T10:43:40.276Z,13.00
2018-12-24T10:46:50.825Z,12.46
2018-12-24T10:49:23.139Z,12.37
2018-12-24T10:51:55.479Z,12.32
2018-12-24T10:54:28.118Z,12.23
2018-12-24T10:57:20.187Z,12.36
2018-12-24T11:00:12.720Z,13.11
2018-12-24T11:02:45.138Z,13.20
2018-12-24T11:05:17.541Z,13.00
2018-12-24T11:10:33.726Z,12.75
2018-12-24T11:13:06.119Z,12.88
2018-12-24T11:15:38.516Z,12.93
2018-12-24T11:18:10.881Z,12.51
2018-12-24T11:21:01.934Z,12.90
2018-12-24T11:26:37.376Z,12.57
2018-12-24T11:29:29.395Z,12.34
2018-12-24T11:32:02.462Z,12.54
2018-12-24T11:34:35.267Z,12.67
2018-12-24T11:37:07.767Z,12.89
2018-12-24T11:39:40.295Z,12.98
2018-12-24T11:42:12.630Z,12.92
2018-12-24T11:44:44.963Z,13.34
2018-12-24T11:47:17.262Z,14.40
2018-12-24T11:49:49.600Z,15.48
2018-12-24T11:55:36.768Z,17.51
2018-12-24T11:58:50.640Z,19.08
2018-12-24T12:01:34.695Z,20.34
2018-12-24T12:04:26.400Z,21.64
2018-12-24T12:07:18.092Z,21.03
2018-12-24T12:10:09.949Z,20.71
2018-12-24T12:12:42.299Z,20.71
2018-12-24T12:15:14.766Z,20.34
2018-12-24T12:17:47.137Z,20.66
2018-12-24T12:20:19.520Z,20.47
2018-12-24T12:22:51.948Z,20.72
2018-12-24T12:25:38.502Z,21.18
2018-12-24T12:28:36.885Z,22.54
2018-12-24T12:43:28.923Z,24.09
2018-12-24T13:12:49.477Z,23.87
2018-12-24T13:43:09.367Z,16.82
2018-12-24T14:25:22.213Z,15.42
2018-12-24T15:34:48.353Z,13.84
2018-12-24T15:37:20.696Z,13.52
2018-12-24T15:39:53.427Z,13.61
2018-12-24T15:42:25.796Z,13.33
2018-12-24T15:44:58.145Z,13.30
2018-12-24T15:47:30.497Z,13.38
2018-12-24T15:50:02.825Z,13.25
2018-12-24T15:52:47.934Z,13.18
2018-12-24T15:58:42.960Z,13.04
2018-12-24T16:14:15.263Z,12.64
2018-12-24T16:59:08.639Z,11.54
2018-12-24T17:01:41.482Z,11.40
2018-12-24T17:04:13.672Z,11.24
2018-12-24T17:06:45.983Z,11.20
2018-12-24T17:09:18.127Z,11.15
2018-12-24T17:11:52.252Z,11.01
2018-12-24T17:14:24.524Z,10.90
2018-12-24T17:16:56.584Z,10.91
2018-12-24T17:19:28.752Z,10.80
2018-12-24T17:22:00.980Z,10.80
2018-12-24T17:24:34.191Z,10.79
2018-12-24T17:27:06.126Z,10.80
2018-12-24T17:29:38.151Z,10.67
2018-12-24T17:32:10.307Z,10.55
2018-12-24T17:34:42.365Z,10.54
2018-12-24T17:37:14.598Z,10.42
2018-12-24T17:39:46.710Z,10.40
2018-12-24T17:42:18.930Z,10.34
2018-12-24T17:44:50.941Z,10.35
2018-12-24T17:47:23.369Z,10.36
2018-12-24T17:49:55.540Z,10.24
2018-12-24T17:52:27.602Z,10.23
2018-12-24T17:54:59.514Z,10.32
2018-12-24T17:57:34.084Z,10.15
2018-12-24T18:00:09.189Z,9.98
2018-12-24T18:02:41.121Z,9.93
2018-12-24T18:05:13.018Z,9.87
2018-12-24T18:07:44.924Z,9.84
2018-12-24T18:10:17.203Z,9.69
2018-12-24T18:12:49.289Z,9.73
2018-12-24T18:15:21.123Z,9.72
2018-12-24T18:17:53.020Z,9.66
2018-12-24T18:20:25.498Z,9.58
2018-12-24T18:22:57.345Z,9.48
2018-12-24T18:25:29.267Z,9.41
2018-12-24T18:28:01.135Z,9.36
2018-12-24T18:30:33.521Z,9.31
2018-12-24T18:33:05.588Z,9.23
2018-12-24T18:35:37.433Z,9.14
2018-12-24T18:38:09.517Z,9.15
2018-12-24T18:40:41.989Z,9.23
2018-12-24T18:43:13.885Z,9.28
2018-12-24T18:45:46.211Z,9.43
2018-12-24T18:48:18.137Z,9.39
2018-12-24T18:50:52.212Z,9.32
2018-12-24T18:53:24.272Z,9.24
2018-12-24T18:55:56.601Z,9.18
2018-12-24T18:58:28.590Z,9.11
2018-12-24T19:01:01.010Z,9.20
2018-12-24T19:03:32.930Z,9.13
2018-12-24T19:06:04.854Z,9.07
2018-12-24T19:08:37.057Z,9.06
2018-12-24T19:11:11.364Z,9.03
2018-12-24T19:13:44.512Z,8.98
2018-12-24T19:16:16.542Z,8.96
2018-12-24T19:18:48.945Z,8.92
2018-12-24T19:21:20.921Z,8.96
2018-12-24T19:23:53.018Z,8.88
2018-12-24T19:26:24.826Z,8.80
2018-12-24T19:28:56.815Z,8.76
2018-12-24T19:31:28.675Z,8.78
2018-12-24T19:34:01.211Z,8.75
2018-12-24T19:36:37.562Z,8.76
2018-12-24T19:39:09.535Z,8.81
2018-12-24T19:41:41.392Z,8.78
2018-12-24T19:44:16.018Z,8.70
2018-12-24T19:46:47.905Z,8.66
2018-12-24T19:49:19.788Z,8.61
2018-12-24T19:51:51.687Z,8.55
2018-12-24T19:54:23.624Z,8.48
2018-12-24T19:56:55.467Z,8.52
2018-12-24T19:59:27.395Z,8.53
2018-12-24T20:01:59.312Z,8.55
2018-12-24T20:04:31.223Z,8.60
2018-12-24T20:07:03.207Z,8.67
2018-12-24T20:09:35.052Z,8.64
2018-12-24T20:12:08.105Z,8.69
2018-12-24T20:14:40.864Z,8.53
2018-12-24T20:17:12.840Z,8.46
2018-12-24T20:19:44.724Z,8.40
2018-12-24T20:22:16.620Z,8.31
2018-12-24T20:24:48.502Z,8.28
2018-12-24T20:27:20.385Z,8.31
2018-12-24T20:29:52.231Z,8.34
2018-12-24T20:32:24.117Z,8.41
2018-12-24T20:34:56.019Z,8.44
2018-12-24T20:37:28.334Z,8.36
2018-12-24T20:40:00.550Z,8.37
2018-12-24T20:42:32.445Z,8.33
2018-12-24T20:45:04.464Z,8.30
2018-12-24T20:47:36.349Z,8.23
2018-12-24T20:50:08.247Z,8.17
2018-12-24T20:52:40.164Z,8.16
2018-12-24T20:55:13.700Z,8.13
2018-12-24T20:57:45.547Z,8.10
2018-12-24T21:00:17.483Z,8.11
2018-12-24T21:02:53.008Z,8.11
2018-12-24T21:05:24.947Z,8.09
2018-12-24T21:07:57.268Z,8.03
2018-12-24T21:10:29.329Z,8.00
2018-12-24T21:13:01.331Z,7.96
2018-12-24T21:15:33.254Z,7.97
2018-12-24T21:18:05.689Z,8.04
2018-12-24T21:20:37.508Z,8.00
2018-12-24T21:23:09.371Z,7.89
2018-12-24T21:25:41.277Z,7.87
2018-12-24T21:28:13.891Z,7.80
2018-12-24T21:30:45.798Z,7.88
2018-12-24T21:33:17.687Z,7.86
2018-12-24T21:35:49.593Z,7.88
2018-12-24T21:38:21.447Z,7.84
2018-12-24T21:40:53.347Z,7.80
2018-12-24T21:43:25.256Z,7.82
2018-12-24T21:45:57.298Z,7.80
2018-12-24T21:48:32.143Z,7.63
2018-12-24T21:51:04.066Z,7.44
2018-12-24T21:53:36.013Z,7.39
2018-12-24T21:56:07.894Z,7.29
2018-12-24T21:58:39.737Z,7.23
2018-12-24T22:01:11.625Z,7.11
2018-12-24T22:03:43.554Z,7.01
2018-12-24T22:06:15.449Z,6.91
2018-12-24T22:08:47.374Z,6.84
2018-12-24T22:11:19.346Z,6.86
2018-12-24T22:13:51.234Z,6.81
2018-12-24T22:16:23.088Z,6.91
2018-12-24T22:18:55.034Z,6.94
2018-12-24T22:21:26.983Z,6.85
2018-12-24T22:23:58.846Z,6.83
2018-12-24T22:26:30.768Z,6.88
2018-12-24T22:29:02.680Z,6.85
2018-12-24T22:31:34.566Z,6.88
2018-12-24T22:34:06.467Z,6.84
2018-12-24T22:36:41.520Z,6.75
2018-12-24T22:39:13.422Z,6.65
2018-12-24T22:41:45.261Z,6.57
2018-12-24T22:44:17.262Z,6.45
2018-12-24T22:46:50.520Z,6.45
2018-12-24T22:49:22.434Z,6.47
2018-12-24T22:51:54.494Z,6.47
2018-12-24T22:54:26.333Z,6.41
2018-12-24T22:56:58.611Z,6.40
2018-12-24T22:59:30.588Z,6.26
2018-12-24T23:02:02.835Z,6.25
2018-12-24T23:04:36.081Z,6.31
2018-12-24T23:07:07.922Z,6.04
2018-12-24T23:09:39.822Z,6.31
2018-12-24T23:12:12.851Z,6.31
2018-12-24T23:14:45.765Z,6.40
2018-12-24T23:17:17.716Z,6.35
2018-12-24T23:19:49.892Z,6.34
2018-12-24T23:22:21.788Z,6.27
2018-12-24T23:24:56.415Z,6.37
2018-12-24T23:27:28.415Z,6.44
2018-12-24T23:30:01.491Z,6.48
2018-12-24T23:32:34.015Z,6.45
2018-12-24T23:35:06.117Z,6.35
2018-12-24T23:37:37.984Z,6.36
2018-12-24T23:40:09.837Z,6.25
2018-12-24T23:42:41.748Z,6.21
2018-12-24T23:45:14.242Z,6.18
2018-12-24T23:47:46.142Z,6.04
2018-12-24T23:50:18.147Z,6.07
2018-12-24T23:52:51.707Z,6.11
2018-12-24T23:55:23.592Z,6.11
2018-12-24T23:57:55.498Z,6.13
